sensor_id;sensor_type;location;lat;lon;timestamp;temperature;humidity
32626;DHT22;19038;50.922;11.880;2022-12-10T00:04:49;4.00;87.60
32626;DHT22;19038;50.922;11.880;2022-12-10T00:09:49;4.10;87.60
32626;DHT22;19038;50.922;11.880;2022-12-10T00:14:49;4.10;87.60
32626;DHT22;19038;50.922;11.880;2022-12-10T00:19:49;4.10;87.40
32626;DHT22;19038;50.922;11.880;2022-12-10T00:24:49;4.10;87.20
32626;DHT22;19038;50.922;11.880;2022-12-10T00:29:49;4.00;87.40
32626;DHT22;19038;50.922;11.880;2022-12-10T00:34:49;4.10;87.40
32626;DHT22;19038;50.922;11.880;2022-12-10T00:39:50;4.00;87.30
32626;DHT22;19038;50.922;11.880;2022-12-10T00:44:49;4.10;87.40
32626;DHT22;19038;50.922;11.880;2022-12-10T00:49:49;4.00;87.40
32626;DHT22;19038;50.922;11.880;2022-12-10T00:54:49;4.00;87.20
32626;DHT22;19038;50.922;11.880;2022-12-10T00:59:50;4.00;87.40
32626;DHT22;19038;50.922;11.880;2022-12-10T01:04:53;4.00;87.50
32626;DHT22;19038;50.922;11.880;2022-12-10T01:09:49;4.00;87.50
32626;DHT22;19038;50.922;11.880;2022-12-10T01:14:50;4.00;88.10
32626;DHT22;19038;50.922;11.880;2022-12-10T01:19:49;4.00;87.30
32626;DHT22;19038;50.922;11.880;2022-12-10T01:24:50;3.90;87.40
32626;DHT22;19038;50.922;11.880;2022-12-10T01:29:50;3.90;87.30
32626;DHT22;19038;50.922;11.880;2022-12-10T01:34:50;3.90;87.70
32626;DHT22;19038;50.922;11.880;2022-12-10T01:39:50;3.90;87.70
32626;DHT22;19038;50.922;11.880;2022-12-10T01:44:56;3.90;87.90
32626;DHT22;19038;50.922;11.880;2022-12-10T01:49:50;3.80;87.60
32626;DHT22;19038;50.922;11.880;2022-12-10T01:54:50;3.80;87.80
32626;DHT22;19038;50.922;11.880;2022-12-10T01:59:51;3.80;87.60
32626;DHT22;19038;50.922;11.880;2022-12-10T02:19:55;3.80;87.90
32626;DHT22;19038;50.922;11.880;2022-12-10T02:24:50;3.80;88.10
32626;DHT22;19038;50.922;11.880;2022-12-10T02:29:50;3.80;87.80
32626;DHT22;19038;50.922;11.880;2022-12-10T02:34:51;3.70;87.60
32626;DHT22;19038;50.922;11.880;2022-12-10T02:39:50;3.70;88.50
32626;DHT22;19038;50.922;11.880;2022-12-10T02:44:50;3.70;87.90
32626;DHT22;19038;50.922;11.880;2022-12-10T02:49:51;3.70;88.10
32626;DHT22;19038;50.922;11.880;2022-12-10T02:54:50;3.70;87.70
32626;DHT22;19038;50.922;11.880;2022-12-10T03:14:50;3.70;87.60
32626;DHT22;19038;50.922;11.880;2022-12-10T03:19:50;3.60;87.40
32626;DHT22;19038;50.922;11.880;2022-12-10T03:24:50;3.60;87.60
32626;DHT22;19038;50.922;11.880;2022-12-10T03:29:50;3.50;87.60
32626;DHT22;19038;50.922;11.880;2022-12-10T03:34:50;3.50;87.60
32626;DHT22;19038;50.922;11.880;2022-12-10T03:39:50;3.60;87.50
32626;DHT22;19038;50.922;11.880;2022-12-10T03:44:50;3.50;87.70
32626;DHT22;19038;50.922;11.880;2022-12-10T03:49:50;3.50;87.60
32626;DHT22;19038;50.922;11.880;2022-12-10T03:54:50;3.50;87.70
32626;DHT22;19038;50.922;11.880;2022-12-10T03:59:50;3.60;87.70
32626;DHT22;19038;50.922;11.880;2022-12-10T04:04:50;3.50;87.50
32626;DHT22;19038;50.922;11.880;2022-12-10T04:09:50;3.50;87.30
32626;DHT22;19038;50.922;11.880;2022-12-10T04:14:50;3.50;87.30
32626;DHT22;19038;50.922;11.880;2022-12-10T04:19:50;3.50;87.40
32626;DHT22;19038;50.922;11.880;2022-12-10T04:24:50;3.50;86.90
32626;DHT22;19038;50.922;11.880;2022-12-10T04:29:50;3.50;86.90
32626;DHT22;19038;50.922;11.880;2022-12-10T04:34:50;3.50;86.90
32626;DHT22;19038;50.922;11.880;2022-12-10T04:39:50;3.50;86.80
32626;DHT22;19038;50.922;11.880;2022-12-10T04:44:50;3.50;86.70
32626;DHT22;19038;50.922;11.880;2022-12-10T04:49:50;3.40;86.50
32626;DHT22;19038;50.922;11.880;2022-12-10T04:54:50;3.40;86.50
32626;DHT22;19038;50.922;11.880;2022-12-10T04:59:50;3.40;86.80
32626;DHT22;19038;50.922;11.880;2022-12-10T05:04:50;3.30;86.80
32626;DHT22;19038;50.922;11.880;2022-12-10T05:09:55;3.30;87.20
32626;DHT22;19038;50.922;11.880;2022-12-10T05:14:53;3.30;87.10
32626;DHT22;19038;50.922;11.880;2022-12-10T05:19:52;3.30;86.90
32626;DHT22;19038;50.922;11.880;2022-12-10T05:24:52;3.30;86.90
32626;DHT22;19038;50.922;11.880;2022-12-10T05:29:50;3.30;87.10
32626;DHT22;19038;50.922;11.880;2022-12-10T05:34:56;3.40;86.70
32626;DHT22;19038;50.922;11.880;2022-12-10T05:39:50;3.30;86.70
32626;DHT22;19038;50.922;11.880;2022-12-10T05:44:50;3.30;87.00
32626;DHT22;19038;50.922;11.880;2022-12-10T05:49:50;3.30;87.00
32626;DHT22;19038;50.922;11.880;2022-12-10T05:54:50;3.30;87.00
32626;DHT22;19038;50.922;11.880;2022-12-10T05:59:50;3.30;87.10
32626;DHT22;19038;50.922;11.880;2022-12-10T06:04:50;3.30;86.90
32626;DHT22;19038;50.922;11.880;2022-12-10T06:09:50;3.30;86.90
32626;DHT22;19038;50.922;11.880;2022-12-10T06:14:50;3.30;87.20
32626;DHT22;19038;50.922;11.880;2022-12-10T06:19:50;3.20;87.20
32626;DHT22;19038;50.922;11.880;2022-12-10T06:24:50;3.30;87.00
32626;DHT22;19038;50.922;11.880;2022-12-10T06:29:50;3.20;86.70
32626;DHT22;19038;50.922;11.880;2022-12-10T06:34:50;3.20;86.80
32626;DHT22;19038;50.922;11.880;2022-12-10T06:39:50;3.20;86.70
32626;DHT22;19038;50.922;11.880;2022-12-10T06:44:50;3.20;86.90
32626;DHT22;19038;50.922;11.880;2022-12-10T06:49:50;3.20;86.50
32626;DHT22;19038;50.922;11.880;2022-12-10T06:54:50;3.20;86.60
32626;DHT22;19038;50.922;11.880;2022-12-10T06:59:50;3.10;86.60
32626;DHT22;19038;50.922;11.880;2022-12-10T07:04:50;3.10;86.70
32626;DHT22;19038;50.922;11.880;2022-12-10T07:09:50;3.10;86.70
32626;DHT22;19038;50.922;11.880;2022-12-10T07:14:50;3.10;86.50
32626;DHT22;19038;50.922;11.880;2022-12-10T07:19:50;3.10;86.80
32626;DHT22;19038;50.922;11.880;2022-12-10T07:24:50;3.10;86.60
32626;DHT22;19038;50.922;11.880;2022-12-10T07:29:50;3.00;86.40
32626;DHT22;19038;50.922;11.880;2022-12-10T07:34:50;3.10;86.20
32626;DHT22;19038;50.922;11.880;2022-12-10T07:39:50;3.10;86.20
32626;DHT22;19038;50.922;11.880;2022-12-10T07:44:50;3.10;86.00
32626;DHT22;19038;50.922;11.880;2022-12-10T07:49:50;3.10;86.20
32626;DHT22;19038;50.922;11.880;2022-12-10T07:54:50;3.10;86.00
32626;DHT22;19038;50.922;11.880;2022-12-10T07:59:50;3.00;86.10
32626;DHT22;19038;50.922;11.880;2022-12-10T08:04:50;3.00;86.10
32626;DHT22;19038;50.922;11.880;2022-12-10T08:09:50;3.10;86.10
32626;DHT22;19038;50.922;11.880;2022-12-10T08:14:50;3.10;86.10
32626;DHT22;19038;50.922;11.880;2022-12-10T08:19:50;3.10;86.20
32626;DHT22;19038;50.922;11.880;2022-12-10T08:24:50;3.10;86.00
32626;DHT22;19038;50.922;11.880;2022-12-10T08:29:50;3.10;85.80
32626;DHT22;19038;50.922;11.880;2022-12-10T08:31:58;3.10;86.00
32626;DHT22;19038;50.922;11.880;2022-12-10T08:36:58;3.10;86.00
32626;DHT22;19038;50.922;11.880;2022-12-10T08:41:58;3.20;86.00
32626;DHT22;19038;50.922;11.880;2022-12-10T08:46:58;3.10;85.50
32626;DHT22;19038;50.922;11.880;2022-12-10T08:51:58;3.20;85.60
32626;DHT22;19038;50.922;11.880;2022-12-10T08:56:58;3.10;85.30
32626;DHT22;19038;50.922;11.880;2022-12-10T09:01:58;3.20;85.80
32626;DHT22;19038;50.922;11.880;2022-12-10T09:06:58;3.20;85.40
32626;DHT22;19038;50.922;11.880;2022-12-10T09:11:58;3.20;85.70
32626;DHT22;19038;50.922;11.880;2022-12-10T09:16:58;3.10;85.20
32626;DHT22;19038;50.922;11.880;2022-12-10T09:21:58;3.10;85.60
32626;DHT22;19038;50.922;11.880;2022-12-10T09:26:59;3.40;85.20
32626;DHT22;19038;50.922;11.880;2022-12-10T09:31:58;3.30;84.40
32626;DHT22;19038;50.922;11.880;2022-12-10T09:36:58;3.20;85.10
32626;DHT22;19038;50.922;11.880;2022-12-10T09:42:03;3.10;85.30
32626;DHT22;19038;50.922;11.880;2022-12-10T09:47:00;3.10;85.20
32626;DHT22;19038;50.922;11.880;2022-12-10T09:52:01;3.10;85.10
32626;DHT22;19038;50.922;11.880;2022-12-10T09:56:59;3.00;84.90
32626;DHT22;19038;50.922;11.880;2022-12-10T10:02:02;3.00;84.90
32626;DHT22;19038;50.922;11.880;2022-12-10T10:06:59;3.00;85.30
32626;DHT22;19038;50.922;11.880;2022-12-10T10:11:59;3.00;85.50
32626;DHT22;19038;50.922;11.880;2022-12-10T10:17:01;3.00;85.50
32626;DHT22;19038;50.922;11.880;2022-12-10T10:21:59;3.00;85.50
32626;DHT22;19038;50.922;11.880;2022-12-10T10:26:59;2.90;85.30
32626;DHT22;19038;50.922;11.880;2022-12-10T10:36:59;3.00;85.70
32626;DHT22;19038;50.922;11.880;2022-12-10T10:41:59;3.00;85.20
32626;DHT22;19038;50.922;11.880;2022-12-10T10:46:59;2.90;85.40
32626;DHT22;19038;50.922;11.880;2022-12-10T10:52:00;3.00;85.40
32626;DHT22;19038;50.922;11.880;2022-12-10T10:57:01;3.00;85.20
32626;DHT22;19038;50.922;11.880;2022-12-10T11:02:02;3.00;85.20
32626;DHT22;19038;50.922;11.880;2022-12-10T11:07:00;3.00;85.50
32626;DHT22;19038;50.922;11.880;2022-12-10T11:12:01;3.10;85.60
32626;DHT22;19038;50.922;11.880;2022-12-10T11:17:00;3.10;85.50
32626;DHT22;19038;50.922;11.880;2022-12-10T11:22:14;3.10;85.20
32626;DHT22;19038;50.922;11.880;2022-12-10T11:27:03;3.20;85.40
32626;DHT22;19038;50.922;11.880;2022-12-10T11:37:03;3.20;84.70
32626;DHT22;19038;50.922;11.880;2022-12-10T11:42:03;3.10;84.60
32626;DHT22;19038;50.922;11.880;2022-12-10T11:47:03;3.10;84.70
32626;DHT22;19038;50.922;11.880;2022-12-10T11:52:11;3.10;84.70
32626;DHT22;19038;50.922;11.880;2022-12-10T12:02:07;3.10;84.70
32626;DHT22;19038;50.922;11.880;2022-12-10T12:12:03;3.10;84.90
32626;DHT22;19038;50.922;11.880;2022-12-10T12:17:02;3.10;84.70
32626;DHT22;19038;50.922;11.880;2022-12-10T12:22:00;3.10;84.50
32626;DHT22;19038;50.922;11.880;2022-12-10T12:27:02;3.10;84.30
32626;DHT22;19038;50.922;11.880;2022-12-10T12:32:00;3.10;84.50
32626;DHT22;19038;50.922;11.880;2022-12-10T12:36:59;3.10;84.50
32626;DHT22;19038;50.922;11.880;2022-12-10T12:47:02;3.10;84.50
32626;DHT22;19038;50.922;11.880;2022-12-10T12:52:00;3.10;84.50
32626;DHT22;19038;50.922;11.880;2022-12-10T12:57:02;3.10;84.30
32626;DHT22;19038;50.922;11.880;2022-12-10T13:02:02;3.10;84.80
32626;DHT22;19038;50.922;11.880;2022-12-10T13:22:02;3.10;84.50
32626;DHT22;19038;50.922;11.880;2022-12-10T13:32:03;3.10;84.40
32626;DHT22;19038;50.922;11.880;2022-12-10T13:37:04;3.10;84.40
32626;DHT22;19038;50.922;11.880;2022-12-10T13:47:04;3.10;84.40
32626;DHT22;19038;50.922;11.880;2022-12-10T13:52:04;3.10;84.40
32626;DHT22;19038;50.922;11.880;2022-12-10T13:57:04;3.10;84.40
32626;DHT22;19038;50.922;11.880;2022-12-10T14:02:03;3.10;84.40
32626;DHT22;19038;50.922;11.880;2022-12-10T14:06:59;3.10;84.30
32626;DHT22;19038;50.922;11.880;2022-12-10T14:12:00;3.10;84.30
32626;DHT22;19038;50.922;11.880;2022-12-10T14:17:00;3.00;84.50
32626;DHT22;19038;50.922;11.880;2022-12-10T14:21:59;3.10;84.80
32626;DHT22;19038;50.922;11.880;2022-12-10T14:27:01;3.10;84.40
32626;DHT22;19038;50.922;11.880;2022-12-10T14:31:59;3.10;84.30
32626;DHT22;19038;50.922;11.880;2022-12-10T14:37:01;3.00;84.00
32626;DHT22;19038;50.922;11.880;2022-12-10T14:42:00;3.00;84.10
32626;DHT22;19038;50.922;11.880;2022-12-10T14:47:04;3.00;84.50
32626;DHT22;19038;50.922;11.880;2022-12-10T14:51:59;3.00;84.60
32626;DHT22;19038;50.922;11.880;2022-12-10T14:57:01;3.00;83.80
32626;DHT22;19038;50.922;11.880;2022-12-10T15:01:59;3.00;83.70
32626;DHT22;19038;50.922;11.880;2022-12-10T15:06:59;3.00;84.10
32626;DHT22;19038;50.922;11.880;2022-12-10T15:11:59;3.00;84.10
32626;DHT22;19038;50.922;11.880;2022-12-10T15:16:59;3.00;84.40
32626;DHT22;19038;50.922;11.880;2022-12-10T15:22:01;3.00;84.20
32626;DHT22;19038;50.922;11.880;2022-12-10T15:26:59;3.00;84.40
32626;DHT22;19038;50.922;11.880;2022-12-10T15:32:03;3.00;84.40
32626;DHT22;19038;50.922;11.880;2022-12-10T15:32:53;3.00;84.40
32626;DHT22;19038;50.922;11.880;2022-12-10T15:37:53;3.00;84.10
32626;DHT22;19038;50.922;11.880;2022-12-10T15:42:56;3.00;84.20
32626;DHT22;19038;50.922;11.880;2022-12-10T15:47:56;3.00;84.40
32626;DHT22;19038;50.922;11.880;2022-12-10T15:52:53;3.00;84.20
32626;DHT22;19038;50.922;11.880;2022-12-10T15:57:53;3.10;84.00
32626;DHT22;19038;50.922;11.880;2022-12-10T16:02:54;3.00;83.80
32626;DHT22;19038;50.922;11.880;2022-12-10T16:07:54;3.10;85.00
32626;DHT22;19038;50.922;11.880;2022-12-10T16:12:57;3.10;84.00
32626;DHT22;19038;50.922;11.880;2022-12-10T16:17:53;3.10;84.10
32626;DHT22;19038;50.922;11.880;2022-12-10T16:22:54;3.10;84.10
32626;DHT22;19038;50.922;11.880;2022-12-10T16:27:53;3.20;83.80
32626;DHT22;19038;50.922;11.880;2022-12-10T16:32:53;3.20;83.80
32626;DHT22;19038;50.922;11.880;2022-12-10T16:37:53;3.10;83.60
32626;DHT22;19038;50.922;11.880;2022-12-10T16:42:53;3.10;83.90
32626;DHT22;19038;50.922;11.880;2022-12-10T16:47:53;3.10;84.10
32626;DHT22;19038;50.922;11.880;2022-12-10T16:52:54;3.10;84.10
32626;DHT22;19038;50.922;11.880;2022-12-10T16:57:53;3.20;84.30
32626;DHT22;19038;50.922;11.880;2022-12-10T17:02:53;3.20;84.30
32626;DHT22;19038;50.922;11.880;2022-12-10T17:07:53;3.20;83.90
32626;DHT22;19038;50.922;11.880;2022-12-10T17:12:53;3.20;83.80
32626;DHT22;19038;50.922;11.880;2022-12-10T17:17:53;3.20;83.70
32626;DHT22;19038;50.922;11.880;2022-12-10T17:22:53;3.20;83.70
32626;DHT22;19038;50.922;11.880;2022-12-10T17:27:53;3.20;83.80
32626;DHT22;19038;50.922;11.880;2022-12-10T17:32:53;3.20;83.30
32626;DHT22;19038;50.922;11.880;2022-12-10T17:37:53;3.20;83.80
32626;DHT22;19038;50.922;11.880;2022-12-10T17:42:53;3.10;83.50
32626;DHT22;19038;50.922;11.880;2022-12-10T17:47:53;3.10;83.80
32626;DHT22;19038;50.922;11.880;2022-12-10T17:52:53;3.10;83.70
32626;DHT22;19038;50.922;11.880;2022-12-10T17:57:53;3.20;83.70
32626;DHT22;19038;50.922;11.880;2022-12-10T18:02:53;3.10;83.70
32626;DHT22;19038;50.922;11.880;2022-12-10T18:07:53;3.20;83.80
32626;DHT22;19038;50.922;11.880;2022-12-10T18:12:53;3.10;82.60
32626;DHT22;19038;50.922;11.880;2022-12-10T18:17:53;3.00;82.80
32626;DHT22;19038;50.922;11.880;2022-12-10T18:22:53;3.00;83.50
32626;DHT22;19038;50.922;11.880;2022-12-10T18:27:54;3.00;83.00
32626;DHT22;19038;50.922;11.880;2022-12-10T18:32:53;2.90;83.40
32626;DHT22;19038;50.922;11.880;2022-12-10T18:37:53;2.90;83.20
32626;DHT22;19038;50.922;11.880;2022-12-10T18:42:53;2.90;83.40
32626;DHT22;19038;50.922;11.880;2022-12-10T18:47:53;2.90;83.60
32626;DHT22;19038;50.922;11.880;2022-12-10T18:52:53;2.90;83.70
32626;DHT22;19038;50.922;11.880;2022-12-10T18:57:53;2.90;84.00
32626;DHT22;19038;50.922;11.880;2022-12-10T19:02:53;2.90;83.90
32626;DHT22;19038;50.922;11.880;2022-12-10T19:07:53;3.00;83.90
32626;DHT22;19038;50.922;11.880;2022-12-10T19:12:53;3.00;83.40
32626;DHT22;19038;50.922;11.880;2022-12-10T19:17:53;2.90;83.50
32626;DHT22;19038;50.922;11.880;2022-12-10T19:22:53;2.90;83.60
32626;DHT22;19038;50.922;11.880;2022-12-10T19:27:53;2.90;83.40
32626;DHT22;19038;50.922;11.880;2022-12-10T19:32:53;2.90;83.40
32626;DHT22;19038;50.922;11.880;2022-12-10T19:37:53;2.90;83.70
32626;DHT22;19038;50.922;11.880;2022-12-10T19:42:53;2.90;83.70
32626;DHT22;19038;50.922;11.880;2022-12-10T19:47:53;2.90;83.40
32626;DHT22;19038;50.922;11.880;2022-12-10T19:52:53;2.90;83.50
32626;DHT22;19038;50.922;11.880;2022-12-10T19:57:53;2.80;83.60
32626;DHT22;19038;50.922;11.880;2022-12-10T20:02:53;2.90;83.80
32626;DHT22;19038;50.922;11.880;2022-12-10T20:07:53;2.90;83.70
32626;DHT22;19038;50.922;11.880;2022-12-10T20:12:53;2.90;83.80
32626;DHT22;19038;50.922;11.880;2022-12-10T20:17:53;2.80;83.50
32626;DHT22;19038;50.922;11.880;2022-12-10T20:22:54;2.80;83.60
32626;DHT22;19038;50.922;11.880;2022-12-10T20:27:53;2.80;83.50
32626;DHT22;19038;50.922;11.880;2022-12-10T20:32:53;2.80;83.50
32626;DHT22;19038;50.922;11.880;2022-12-10T20:37:53;2.90;83.40
32626;DHT22;19038;50.922;11.880;2022-12-10T20:42:53;2.80;83.50
32626;DHT22;19038;50.922;11.880;2022-12-10T20:47:53;2.80;83.50
32626;DHT22;19038;50.922;11.880;2022-12-10T20:52:53;2.80;83.50
32626;DHT22;19038;50.922;11.880;2022-12-10T20:57:53;2.70;83.50
32626;DHT22;19038;50.922;11.880;2022-12-10T21:02:54;2.80;83.70
32626;DHT22;19038;50.922;11.880;2022-12-10T21:07:55;2.80;83.70
32626;DHT22;19038;50.922;11.880;2022-12-10T21:12:54;2.70;83.20
32626;DHT22;19038;50.922;11.880;2022-12-10T21:17:54;2.70;83.40
32626;DHT22;19038;50.922;11.880;2022-12-10T21:22:54;2.70;83.30
32626;DHT22;19038;50.922;11.880;2022-12-10T21:27:54;2.70;83.30
32626;DHT22;19038;50.922;11.880;2022-12-10T21:32:54;2.70;83.30
32626;DHT22;19038;50.922;11.880;2022-12-10T21:37:54;2.60;82.80
32626;DHT22;19038;50.922;11.880;2022-12-10T21:42:54;2.60;83.00
32626;DHT22;19038;50.922;11.880;2022-12-10T21:47:54;2.60;83.10
32626;DHT22;19038;50.922;11.880;2022-12-10T21:52:54;2.60;83.30
32626;DHT22;19038;50.922;11.880;2022-12-10T21:57:54;2.50;82.40
32626;DHT22;19038;50.922;11.880;2022-12-10T22:02:54;2.50;83.80
32626;DHT22;19038;50.922;11.880;2022-12-10T22:07:54;2.50;82.60
32626;DHT22;19038;50.922;11.880;2022-12-10T22:12:54;2.40;82.80
32626;DHT22;19038;50.922;11.880;2022-12-10T22:17:54;2.40;83.00
32626;DHT22;19038;50.922;11.880;2022-12-10T22:22:54;2.30;82.70
32626;DHT22;19038;50.922;11.880;2022-12-10T22:27:54;2.30;82.80
32626;DHT22;19038;50.922;11.880;2022-12-10T22:32:54;2.30;82.70
32626;DHT22;19038;50.922;11.880;2022-12-10T22:37:54;2.30;82.40
32626;DHT22;19038;50.922;11.880;2022-12-10T22:42:54;2.20;82.30
32626;DHT22;19038;50.922;11.880;2022-12-10T22:47:54;2.20;82.80
32626;DHT22;19038;50.922;11.880;2022-12-10T22:52:54;2.20;82.90
32626;DHT22;19038;50.922;11.880;2022-12-10T22:57:54;2.20;82.80
32626;DHT22;19038;50.922;11.880;2022-12-10T23:02:54;2.20;82.70
32626;DHT22;19038;50.922;11.880;2022-12-10T23:07:55;2.20;82.20
32626;DHT22;19038;50.922;11.880;2022-12-10T23:12:54;2.10;82.10
32626;DHT22;19038;50.922;11.880;2022-12-10T23:17:54;2.10;82.30
32626;DHT22;19038;50.922;11.880;2022-12-10T23:22:54;2.00;82.70
32626;DHT22;19038;50.922;11.880;2022-12-10T23:27:54;2.00;82.90
32626;DHT22;19038;50.922;11.880;2022-12-10T23:32:54;2.10;83.20
32626;DHT22;19038;50.922;11.880;2022-12-10T23:37:54;2.10;82.80
32626;DHT22;19038;50.922;11.880;2022-12-10T23:42:54;2.10;82.80
32626;DHT22;19038;50.922;11.880;2022-12-10T23:47:54;2.00;81.60
32626;DHT22;19038;50.922;11.880;2022-12-10T23:52:54;1.90;81.70
32626;DHT22;19038;50.922;11.880;2022-12-10T23:57:54;1.90;82.20
